Dominion Park, New York
Current Conditions -  °F | °C
As of 5:54 PM on Thursday 23 Oct 2014 (Local Time) from KSYR Reporting Station
Overcast Overcast  
Wind Chill: 52°   Ceiling: 2700
Heat Index: 52°   Visibility: 10mi
Dew Point: 42°   Wind: 17mph
Humidity: 69%   Direction: 340°NNW
Pressure: 29.93"   Gusts: 22mph
Location:  43.1489°N, 76.2142°W
Report Text: KSYR 232154Z 34015G19KT 10SM OVC027 11/06 A2993 RMK AO2 RAB13E41 SLP135 P0000 T01110056
Loading
Personal Weather Stations






























Interactive Weather Map
Tropical Storm Tracking
New forecast layout! Learn more

10-Day Weather Forecast

Advertisements
Track Severe Weather on mobile